Weather at St. André-Avellin Aerodrome

Public forecast

Using degrees Celsius for public forecast. Weather courtesy of forecast.io.

Closest aviation weather report (METAR) to St. André-Avellin Aerodrome

Report is more than 2 hours old.

Closest report is Ottawa / Gatineau Airport, 24.7 nm (45.7 km) WSW. Retrieved 2021/01/26 02:00 UTC (5 hours ago):

CYND 260200Z 00000KT 12SM -SN OVC020 M08/M10 A3011 RMK SC8 LAST STFD OBS/NXT 261200Z SLP205

Closest aviation forecast (TAF) to St. André-Avellin Aerodrome

Forecast is more than 6 hours old.

Closest forecast is Ottawa / Gatineau Airport, 24.7 nm (45.7 km) WSW. Retrieved 2021-01-26 00:00 UTC (7 hours ago):

TAF CYND 252338Z 2600/2602 VRB03KT P6SM OVC025 TEMPO 2600/2602 P6SM -SN OVC015 RMK NXT FCST WILL BE ISSUED AT 261345Z